Time;durP1;ratioP1;P1;durP2;ratioP2;P2;SDS_P1;SDS_P2;PMS_P1;PMS_P2;Temp;Humidity;BMP_temperature;BMP_pressure;BME280_temperature;BME280_humidity;BME280_pressure;Samples;Min_cycle;Max_cycle;Signal;HPM_P1;HPM_P2
2021/08/01 00:01:54;;;;;;;4.43;3.60;;;16.00;99.90;;;;;;5013413;28;20674;-77
2021/08/01 00:04:21;;;;;;;7.63;4.43;;;15.90;99.90;;;;;;5013291;28;20547;-77
2021/08/01 00:06:49;;;;;;;6.17;3.67;;;15.90;99.90;;;;;;5013253;28;20197;-77
2021/08/01 00:09:17;;;;;;;5.23;3.70;;;15.80;99.90;;;;;;5014156;28;20200;-77
2021/08/01 00:11:44;;;;;;;5.53;3.93;;;15.90;99.90;;;;;;5013176;28;20652;-77
2021/08/01 00:14:11;;;;;;;5.43;3.97;;;15.80;99.90;;;;;;5013288;28;20251;-77
2021/08/01 00:16:38;;;;;;;5.00;4.07;;;15.90;99.90;;;;;;5012981;28;20196;-77
2021/08/01 00:19:05;;;;;;;4.70;4.03;;;15.90;99.90;;;;;;5012669;28;20623;-77
2021/08/01 00:21:32;;;;;;;4.70;4.03;;;15.80;99.90;;;;;;5013380;28;20251;-77
2021/08/01 00:24:01;;;;;;;6.00;3.90;;;15.80;99.90;;;;;;5018588;28;20251;-77
2021/08/01 00:26:28;;;;;;;5.53;3.90;;;15.80;99.90;;;;;;4993847;28;20205;-77
2021/08/01 00:28:55;;;;;;;5.47;4.03;;;15.90;99.90;;;;;;5009640;28;20259;-77
2021/08/01 00:31:22;;;;;;;4.43;3.77;;;15.90;99.90;;;;;;5012857;28;20658;-77
2021/08/01 00:33:49;;;;;;;5.30;4.10;;;15.90;99.90;;;;;;5014000;28;20646;-78
2021/08/01 00:36:17;;;;;;;5.57;4.27;;;15.90;99.90;;;;;;5012212;28;20208;-77
2021/08/01 00:38:44;;;;;;;6.70;4.50;;;15.90;99.90;;;;;;5013134;28;20228;-77
2021/08/01 00:41:12;;;;;;;6.63;4.30;;;15.90;99.90;;;;;;5012746;28;20270;-77
2021/08/01 00:43:39;;;;;;;5.57;4.00;;;15.80;99.90;;;;;;5013464;28;20196;-77
2021/08/01 00:46:06;;;;;;;6.13;4.13;;;15.70;99.90;;;;;;5012862;28;20254;-77
2021/08/01 00:48:35;;;;;;;4.27;3.87;;;15.70;99.90;;;;;;5023766;28;20270;-77
2021/08/01 00:51:02;;;;;;;4.70;3.83;;;15.70;99.90;;;;;;5013027;28;20224;-77
2021/08/01 00:53:31;;;;;;;6.30;3.83;;;15.60;99.90;;;;;;5012884;28;20196;-77
2021/08/01 00:56:00;;;;;;;5.13;3.93;;;15.60;99.90;;;;;;5012872;28;20193;-77
2021/08/01 00:58:28;;;;;;;5.43;3.67;;;15.50;99.90;;;;;;5012829;28;20589;-77
2021/08/01 01:03:48;;;;;;;5.33;3.77;;;15.30;99.90;;;;;;5006948;28;20201;-77
2021/08/01 01:06:27;;;;;;;4.80;3.93;;;15.20;99.90;;;;;;5011961;28;20568;-77
2021/08/01 01:09:01;;;;;;;6.33;4.30;;;15.30;99.90;;;;;;4976156;28;20216;-77
2021/08/01 01:11:32;;;;;;;4.47;3.97;;;15.10;99.90;;;;;;4986441;28;20200;-77
2021/08/01 01:14:02;;;;;;;5.57;4.07;;;15.00;99.90;;;;;;5012209;28;20262;-77
2021/08/01 01:16:37;;;;;;;5.67;4.67;;;14.80;99.90;;;;;;5011144;28;20196;-77
2021/08/01 01:19:05;;;;;;;5.67;4.33;;;14.90;99.90;;;;;;5011885;28;20223;-77
2021/08/01 01:21:47;;;;;;;5.43;3.97;;;14.80;99.90;;;;;;5011900;28;20226;-77
2021/08/01 01:24:17;;;;;;;6.07;4.70;;;14.70;99.90;;;;;;5016793;28;20196;-77
2021/08/01 01:26:52;;;;;;;5.97;4.53;;;14.80;99.90;;;;;;5017092;28;20273;-77
2021/08/01 01:29:24;;;;;;;5.03;4.30;;;14.70;99.90;;;;;;5010796;28;20200;-77
2021/08/01 01:32:09;;;;;;;6.67;4.67;;;14.70;99.90;;;;;;5011687;28;20651;-76
2021/08/01 01:34:46;;;;;;;5.20;4.60;;;14.80;99.90;;;;;;5010324;28;20491;-76
2021/08/01 01:37:18;;;;;;;5.27;4.67;;;14.90;99.90;;;;;;4992664;28;20203;-75
2021/08/01 01:39:46;;;;;;;9.83;4.60;;;15.00;99.90;;;;;;5009270;28;20297;-75
2021/08/01 01:42:16;;;;;;;6.67;5.00;;;15.00;99.90;;;;;;5009891;28;20207;-75
2021/08/01 01:44:45;;;;;;;7.57;4.70;;;15.00;99.90;;;;;;4998847;28;20573;-76
2021/08/01 01:47:12;;;;;;;6.10;4.53;;;15.00;99.90;;;;;;5006265;28;20201;-75
2021/08/01 01:49:41;;;;;;;6.60;5.07;;;15.00;99.90;;;;;;5009712;28;20223;-76
2021/08/01 01:52:11;;;;;;;6.13;4.40;;;15.00;99.90;;;;;;5002470;28;20208;-76
2021/08/01 01:54:39;;;;;;;8.37;4.60;;;15.00;99.90;;;;;;5007067;28;20679;-75
2021/08/01 01:57:07;;;;;;;5.77;4.60;;;14.90;99.90;;;;;;5010967;28;20200;-75
2021/08/01 01:59:34;;;;;;;5.67;4.43;;;14.90;99.90;;;;;;5009956;28;21277;-75
2021/08/01 02:02:01;;;;;;;6.57;4.73;;;14.80;99.90;;;;;;5011008;28;20206;-75
2021/08/01 02:04:27;;;;;;;5.27;4.50;;;14.80;99.90;;;;;;5008984;28;20200;-75
2021/08/01 02:06:54;;;;;;;5.47;4.53;;;14.60;99.90;;;;;;5001641;28;20207;-75
2021/08/01 02:09:32;;;;;;;6.17;4.43;;;14.60;99.90;;;;;;5015023;28;20202;-75
2021/08/01 02:12:11;;;;;;;5.00;4.40;;;14.60;99.90;;;;;;5012912;28;20200;-75
2021/08/01 02:14:45;;;;;;;7.83;4.50;;;14.70;99.90;;;;;;5011058;28;20207;-75
2021/08/01 02:17:14;;;;;;;7.20;4.33;;;14.70;99.90;;;;;;5006801;28;20200;-75
2021/08/01 02:19:43;;;;;;;4.37;3.97;;;14.70;99.90;;;;;;5008450;28;20226;-75
2021/08/01 02:22:11;;;;;;;8.13;5.17;;;14.70;99.90;;;;;;5009783;28;20207;-75
2021/08/01 02:24:39;;;;;;;7.10;5.07;;;14.70;99.90;;;;;;5012572;28;20204;-75
2021/08/01 02:27:09;;;;;;;7.43;5.07;;;14.70;99.90;;;;;;5012260;28;20200;-76
2021/08/01 02:29:37;;;;;;;7.70;4.90;;;14.60;99.90;;;;;;5007310;28;20673;-75
2021/08/01 02:32:06;;;;;;;6.60;5.33;;;14.60;99.90;;;;;;5010873;28;20201;-75
2021/08/01 02:34:33;;;;;;;5.57;4.87;;;14.60;99.90;;;;;;5009479;28;20208;-75
2021/08/01 02:37:02;;;;;;;8.47;4.73;;;14.50;99.90;;;;;;5012951;28;20212;-75
2021/08/01 02:39:30;;;;;;;7.07;5.37;;;14.40;99.90;;;;;;5008809;28;20589;-75
2021/08/01 02:42:00;;;;;;;6.13;5.17;;;14.20;99.90;;;;;;5008708;28;20570;-75
2021/08/01 02:44:32;;;;;;;6.50;5.10;;;14.20;99.90;;;;;;5013353;28;20220;-75
2021/08/01 02:47:00;;;;;;;5.70;5.10;;;14.10;99.90;;;;;;5013516;28;20197;-75
2021/08/01 02:49:32;;;;;;;5.97;4.93;;;14.20;99.90;;;;;;5014816;28;20204;-75
2021/08/01 02:52:03;;;;;;;7.23;5.30;;;14.10;99.90;;;;;;5013555;28;20638;-75
2021/08/01 02:54:32;;;;;;;6.90;5.60;;;14.20;99.90;;;;;;5014334;28;20197;-75
2021/08/01 02:57:02;;;;;;;7.43;5.30;;;14.20;99.90;;;;;;5013651;28;20196;-75
2021/08/01 02:59:33;;;;;;;5.87;5.27;;;14.20;99.90;;;;;;5008673;28;20224;-75
2021/08/01 03:02:02;;;;;;;7.00;5.87;;;14.10;99.90;;;;;;5012209;28;20212;-75
2021/08/01 03:04:29;;;;;;;8.13;5.63;;;14.10;99.90;;;;;;5015506;28;20215;-75
2021/08/01 03:06:56;;;;;;;9.70;6.37;;;14.10;99.90;;;;;;5013731;28;20642;-75
2021/08/01 03:09:23;;;;;;;8.73;5.77;;;14.20;99.90;;;;;;5015064;28;20200;-75
2021/08/01 03:11:50;;;;;;;8.00;6.47;;;14.20;99.90;;;;;;5016103;28;20197;-75
2021/08/01 03:14:17;;;;;;;10.37;6.13;;;14.20;99.90;;;;;;5013742;28;20197;-75
2021/08/01 03:16:45;;;;;;;9.17;6.53;;;14.20;99.90;;;;;;5013612;28;20205;-75
2021/08/01 03:19:12;;;;;;;8.07;6.10;;;14.20;99.90;;;;;;5012807;28;20674;-75
2021/08/01 03:21:39;;;;;;;8.93;6.60;;;14.20;99.90;;;;;;5012952;28;20206;-75
2021/08/01 03:24:06;;;;;;;9.13;6.10;;;14.20;99.90;;;;;;5014433;28;20208;-75
2021/08/01 03:26:33;;;;;;;7.77;6.40;;;14.30;99.90;;;;;;5013925;28;20197;-74
2021/08/01 03:28:59;;;;;;;7.57;5.87;;;14.40;99.90;;;;;;5014173;28;20565;-74
2021/08/01 03:31:26;;;;;;;8.63;6.50;;;14.40;99.90;;;;;;5012987;28;20204;-75
2021/08/01 03:33:54;;;;;;;10.47;6.00;;;14.50;99.90;;;;;;5013905;28;20665;-74
2021/08/01 03:36:21;;;;;;;8.70;6.27;;;14.40;99.90;;;;;;5012983;28;20192;-74
2021/08/01 03:38:48;;;;;;;10.47;6.43;;;14.40;99.90;;;;;;5014566;28;20243;-75
2021/08/01 03:41:15;;;;;;;9.97;6.47;;;14.40;99.90;;;;;;5013451;28;20205;-75
2021/08/01 03:43:42;;;;;;;8.83;6.90;;;14.50;99.90;;;;;;5013749;28;20223;-74
2021/08/01 03:46:08;;;;;;;10.90;7.10;;;14.60;99.90;;;;;;5013919;28;20214;-74
2021/08/01 03:48:35;;;;;;;10.03;6.40;;;14.60;99.90;;;;;;5014162;28;20212;-75
2021/08/01 03:51:04;;;;;;;9.60;6.63;;;14.70;99.90;;;;;;5012240;28;20200;-74
2021/08/01 03:53:31;;;;;;;9.17;6.60;;;14.70;99.90;;;;;;5012560;28;20216;-74
2021/08/01 03:56:03;;;;;;;7.87;6.13;;;14.70;99.90;;;;;;5012889;28;20720;-75
2021/08/01 03:58:30;;;;;;;7.30;6.20;;;14.80;99.90;;;;;;5013572;28;20255;-75
2021/08/01 04:00:56;;;;;;;10.10;6.37;;;14.60;99.90;;;;;;5006425;28;20710;-75
2021/08/01 04:03:24;;;;;;;8.60;6.37;;;14.70;99.90;;;;;;5009564;28;20196;-74
2021/08/01 04:05:50;;;;;;;10.00;6.43;;;14.80;99.90;;;;;;5010147;28;20201;-74
2021/08/01 04:08:18;;;;;;;10.37;6.37;;;14.80;99.90;;;;;;5010052;28;20579;-75
2021/08/01 04:10:45;;;;;;;10.97;7.20;;;14.90;99.90;;;;;;5012991;28;20213;-74
2021/08/01 04:13:12;;;;;;;9.77;5.93;;;14.90;99.90;;;;;;5011970;28;20299;-74
2021/08/01 04:15:39;;;;;;;10.80;6.10;;;15.10;99.90;;;;;;5011104;28;20208;-75
2021/08/01 04:18:06;;;;;;;9.50;6.83;;;15.10;99.90;;;;;;5010928;28;20218;-75
2021/08/01 04:20:32;;;;;;;9.70;6.60;;;15.10;99.90;;;;;;5011608;28;20232;-74
2021/08/01 04:22:59;;;;;;;9.67;6.73;;;15.10;99.90;;;;;;5009314;28;20218;-74
2021/08/01 04:25:27;;;;;;;10.47;6.70;;;15.20;99.90;;;;;;5011635;28;20200;-75
2021/08/01 04:27:54;;;;;;;9.47;6.27;;;15.20;99.90;;;;;;5006138;28;20664;-74
2021/08/01 04:30:21;;;;;;;9.07;6.03;;;15.20;99.90;;;;;;5011609;28;20201;-74
2021/08/01 04:32:48;;;;;;;11.60;6.90;;;15.30;99.90;;;;;;5010362;28;20208;-75
2021/08/01 04:35:15;;;;;;;9.70;7.30;;;15.40;99.90;;;;;;5008581;28;20206;-75
2021/08/01 04:37:42;;;;;;;10.17;7.27;;;15.60;99.90;;;;;;5009325;28;20208;-75
2021/08/01 04:40:10;;;;;;;10.63;6.63;;;15.70;99.90;;;;;;5010210;28;20228;-75
2021/08/01 04:42:38;;;;;;;10.43;7.63;;;16.00;99.90;;;;;;5011878;28;20214;-75
2021/08/01 04:45:06;;;;;;;10.27;7.00;;;16.10;99.90;;;;;;5011489;28;20288;-75
2021/08/01 04:47:32;;;;;;;13.00;8.50;;;16.00;99.90;;;;;;5009552;28;20288;-75
2021/08/01 04:49:59;;;;;;;9.20;6.93;;;16.00;99.90;;;;;;5011483;28;20213;-75
2021/08/01 04:52:26;;;;;;;11.43;8.10;;;15.90;99.90;;;;;;5009403;28;20204;-75
2021/08/01 04:54:53;;;;;;;10.37;7.90;;;16.00;99.90;;;;;;5001698;28;20222;-76
2021/08/01 04:57:20;;;;;;;9.73;7.63;;;16.00;99.90;;;;;;5009595;28;20204;-78
2021/08/01 04:59:48;;;;;;;10.00;7.97;;;16.00;99.90;;;;;;5010554;28;20220;-77
2021/08/01 05:02:15;;;;;;;10.20;7.97;;;16.10;99.90;;;;;;5015718;28;20677;-78
2021/08/01 05:04:42;;;;;;;13.17;8.20;;;16.10;99.90;;;;;;5017621;28;20291;-78
2021/08/01 05:07:09;;;;;;;11.70;8.60;;;16.30;99.90;;;;;;5016183;28;20203;-78
2021/08/01 05:09:37;;;;;;;11.80;8.53;;;16.40;99.90;;;;;;5005493;28;20574;-78
2021/08/01 05:12:04;;;;;;;10.37;8.10;;;16.30;99.90;;;;;;5014731;28;20204;-77
2021/08/01 05:14:40;;;;;;;12.63;8.73;;;16.50;99.90;;;;;;5015323;28;20203;-78
2021/08/01 05:17:08;;;;;;;12.80;8.77;;;16.40;99.90;;;;;;5019490;28;20676;-78
2021/08/01 05:19:40;;;;;;;29.98;20.55;;;16.50;99.90;;;;;;5027008;28;20220;-78
2021/08/01 05:22:07;;;;;;;13.10;9.10;;;16.70;99.90;;;;;;5023987;28;20212;-78
2021/08/01 05:24:36;;;;;;;12.98;9.32;;;16.80;99.90;;;;;;5021244;28;20212;-78
2021/08/01 05:27:04;;;;;;;11.45;8.93;;;17.00;99.90;;;;;;5020038;28;20204;-76
2021/08/01 05:29:31;;;;;;;14.02;8.70;;;17.10;99.90;;;;;;5014702;28;20193;-76
2021/08/01 05:31:58;;;;;;;13.45;8.63;;;17.00;99.90;;;;;;5013195;28;20206;-76
2021/08/01 05:34:26;;;;;;;13.07;8.90;;;17.00;99.90;;;;;;5012950;28;20650;-75
2021/08/01 05:36:53;;;;;;;16.27;8.20;;;17.10;99.90;;;;;;5009599;28;20715;-75
2021/08/01 05:39:19;;;;;;;11.50;7.50;;;17.00;99.90;;;;;;5012805;28;20200;-75
2021/08/01 05:41:46;;;;;;;12.43;8.82;;;17.10;99.90;;;;;;5012633;28;20298;-75
2021/08/01 05:44:13;;;;;;;12.23;7.83;;;17.10;99.90;;;;;;5010893;28;20214;-75
2021/08/01 05:46:40;;;;;;;13.63;8.67;;;17.00;99.90;;;;;;5011577;28;20196;-75
2021/08/01 05:49:07;;;;;;;13.45;9.15;;;17.20;99.90;;;;;;5012536;28;20219;-75
2021/08/01 05:51:35;;;;;;;12.48;8.77;;;17.10;99.90;;;;;;5012324;28;20214;-75
2021/08/01 05:54:02;;;;;;;11.38;8.30;;;17.20;99.90;;;;;;5012948;28;20204;-75
2021/08/01 05:56:29;;;;;;;11.20;8.85;;;17.20;99.90;;;;;;5003873;28;20786;-75
2021/08/01 05:58:56;;;;;;;13.57;8.52;;;17.20;99.90;;;;;;5007525;28;20614;-75
2021/08/01 06:01:24;;;;;;;11.27;8.43;;;17.10;99.90;;;;;;5006272;28;20211;-75
2021/08/01 06:03:51;;;;;;;9.63;8.00;;;17.10;99.90;;;;;;5010159;28;20196;-75
2021/08/01 06:06:19;;;;;;;10.82;7.97;;;17.10;99.90;;;;;;5015188;23;20327;-80
2021/08/01 06:08:50;;;;;;;12.32;8.55;;;17.20;99.90;;;;;;5018677;28;20294;-81
2021/08/01 06:11:17;;;;;;;11.93;8.52;;;17.10;99.90;;;;;;5024695;28;20208;-82
2021/08/01 06:13:44;;;;;;;11.18;8.27;;;17.20;99.90;;;;;;5032225;28;20636;-81
2021/08/01 06:16:13;;;;;;;12.65;9.18;;;17.20;99.90;;;;;;5018051;28;20254;-81
2021/08/01 06:18:40;;;;;;;10.00;7.80;;;17.10;99.90;;;;;;5020230;28;20291;-80
2021/08/01 06:21:08;;;;;;;11.20;8.43;;;17.10;99.90;;;;;;5009684;28;20223;-80
2021/08/01 06:23:36;;;;;;;12.27;9.43;;;17.10;99.90;;;;;;5021613;28;20271;-80
2021/08/01 06:26:05;;;;;;;16.63;9.48;;;17.20;99.90;;;;;;5021822;28;20306;-79
2021/08/01 06:28:32;;;;;;;12.32;8.55;;;17.30;99.90;;;;;;5012742;28;20265;-81
2021/08/01 06:31:02;;;;;;;13.00;9.23;;;17.40;99.90;;;;;;5011759;28;20652;-81
2021/08/01 06:33:29;;;;;;;12.35;8.88;;;17.40;99.90;;;;;;5019599;28;20223;-79
2021/08/01 06:35:56;;;;;;;12.50;8.90;;;17.40;99.90;;;;;;5008700;28;20228;-80
2021/08/01 06:38:23;;;;;;;13.70;9.32;;;17.30;99.90;;;;;;5015250;28;20201;-81
2021/08/01 06:40:50;;;;;;;13.20;8.75;;;17.30;99.90;;;;;;5018733;28;20242;-79
2021/08/01 06:43:18;;;;;;;12.50;8.27;;;17.40;99.90;;;;;;5016632;28;20266;-78
2021/08/01 06:45:45;;;;;;;11.75;8.07;;;17.40;99.90;;;;;;5007912;28;20231;-79
2021/08/01 06:48:12;;;;;;;13.75;9.20;;;17.70;99.90;;;;;;5011869;28;20200;-77
2021/08/01 06:50:39;;;;;;;15.13;9.50;;;17.60;99.90;;;;;;5007463;28;20211;-78
2021/08/01 06:53:06;;;;;;;13.75;8.75;;;17.70;99.90;;;;;;5009641;28;20206;-78
2021/08/01 06:55:33;;;;;;;15.65;9.73;;;17.70;99.90;;;;;;5005341;28;20654;-78
2021/08/01 06:58:00;;;;;;;13.43;9.38;;;17.70;99.90;;;;;;5013925;28;20209;-79
2021/08/01 07:00:29;;;;;;;15.70;10.02;;;17.70;99.90;;;;;;5014244;28;20291;-81
2021/08/01 07:02:57;;;;;;;14.05;9.85;;;17.70;99.90;;;;;;5013164;28;20255;-80
2021/08/01 07:05:24;;;;;;;14.07;10.05;;;17.80;99.90;;;;;;5013785;28;20312;-79
2021/08/01 07:07:52;;;;;;;14.23;9.55;;;17.70;99.90;;;;;;5013510;28;20205;-78
2021/08/01 07:10:19;;;;;;;13.68;8.73;;;17.70;99.90;;;;;;5014219;28;20231;-79
2021/08/01 07:12:46;;;;;;;19.05;13.60;;;17.80;99.90;;;;;;5016893;28;20207;-78
2021/08/01 07:15:17;;;;;;;15.77;10.75;;;17.90;99.90;;;;;;5020181;28;20703;-78
2021/08/01 07:17:45;;;;;;;11.88;9.07;;;17.90;99.90;;;;;;5012090;28;20204;-80
2021/08/01 07:20:13;;;;;;;13.43;9.25;;;17.90;99.90;;;;;;5012833;28;20223;-79
2021/08/01 07:22:41;;;;;;;14.65;9.88;;;18.00;99.90;;;;;;5010127;28;20291;-79
2021/08/01 07:25:09;;;;;;;12.40;9.15;;;18.20;99.90;;;;;;5002554;28;20295;-80
2021/08/01 07:27:36;;;;;;;14.50;9.63;;;18.30;99.90;;;;;;5012010;28;20215;-80
2021/08/01 07:30:03;;;;;;;14.13;9.40;;;18.10;99.90;;;;;;5012648;28;20203;-79
2021/08/01 07:32:30;;;;;;;14.30;9.50;;;18.30;99.90;;;;;;5012371;28;20683;-79
2021/08/01 07:34:58;;;;;;;14.02;9.82;;;18.30;99.90;;;;;;5014229;28;20308;-80
2021/08/01 07:37:25;;;;;;;12.55;9.27;;;18.30;99.90;;;;;;5011971;28;20751;-81
2021/08/01 07:39:52;;;;;;;15.80;10.57;;;18.50;99.90;;;;;;5017375;28;20299;-83
2021/08/01 07:42:19;;;;;;;17.35;11.10;;;18.40;99.90;;;;;;5013569;28;20307;-80
2021/08/01 07:44:50;;;;;;;15.63;9.93;;;18.70;99.90;;;;;;5016772;28;20231;-80
2021/08/01 07:47:18;;;;;;;17.80;10.98;;;18.90;99.90;;;;;;5009135;28;20600;-82
2021/08/01 07:49:45;;;;;;;14.25;10.00;;;18.80;99.90;;;;;;5014293;28;20214;-81
2021/08/01 07:52:14;;;;;;;12.50;9.65;;;18.70;99.90;;;;;;5016943;28;20656;-79
2021/08/01 07:54:41;;;;;;;13.65;9.70;;;18.70;99.90;;;;;;5016869;28;20723;-82
2021/08/01 07:57:08;;;;;;;15.05;10.10;;;18.80;99.90;;;;;;5016917;28;20315;-79
2021/08/01 07:59:38;;;;;;;13.57;8.98;;;18.70;99.90;;;;;;5013684;28;20211;-81
2021/08/01 08:02:04;;;;;;;12.40;8.73;;;18.90;99.90;;;;;;5012046;28;20578;-80
2021/08/01 08:04:31;;;;;;;12.70;8.93;;;19.10;99.90;;;;;;5011764;28;20201;-80
2021/08/01 08:06:58;;;;;;;11.70;7.75;;;18.80;99.90;;;;;;5014527;28;20314;-79
2021/08/01 08:09:26;;;;;;;12.63;8.73;;;18.90;99.90;;;;;;5017149;28;20592;-82
2021/08/01 08:11:54;;;;;;;12.15;8.55;;;18.80;99.90;;;;;;5012546;28;20610;-79
2021/08/01 08:14:20;;;;;;;12.07;8.30;;;19.10;99.90;;;;;;5017973;28;20207;-79
2021/08/01 08:16:47;;;;;;;11.80;8.00;;;19.20;99.90;;;;;;5015733;28;20338;-79
2021/08/01 08:19:15;;;;;;;11.00;8.32;;;19.40;99.90;;;;;;5015897;28;20206;-78
2021/08/01 08:21:41;;;;;;;8.93;7.40;;;19.70;99.90;;;;;;5013169;28;20288;-80
2021/08/01 08:24:08;;;;;;;11.48;7.65;;;19.70;99.90;;;;;;5012693;28;20657;-79
2021/08/01 08:26:37;;;;;;;9.77;7.40;;;19.60;99.90;;;;;;5013804;28;20231;-78
2021/08/01 08:29:03;;;;;;;10.73;8.52;;;19.40;99.90;;;;;;5012830;28;20204;-80
2021/08/01 08:31:31;;;;;;;9.35;7.55;;;19.60;99.90;;;;;;5016730;28;20254;-78
2021/08/01 08:33:58;;;;;;;10.73;6.93;;;19.70;99.90;;;;;;5014051;28;20214;-79
2021/08/01 08:36:25;;;;;;;9.10;5.95;;;19.50;99.90;;;;;;5010149;28;20260;-79
2021/08/01 08:38:52;;;;;;;6.22;5.45;;;19.30;99.90;;;;;;5014610;28;20243;-79
2021/08/01 08:41:21;;;;;;;7.25;5.30;;;19.30;99.90;;;;;;5015406;28;20592;-79
2021/08/01 08:43:49;;;;;;;6.25;5.43;;;19.60;99.90;;;;;;5015940;28;20251;-81
2021/08/01 08:46:19;;;;;;;6.53;5.22;;;19.80;99.90;;;;;;5016389;28;20247;-79
2021/08/01 08:48:46;;;;;;;7.55;5.72;;;19.90;99.90;;;;;;5007828;28;20633;-79
2021/08/01 08:51:13;;;;;;;8.82;5.68;;;20.00;99.90;;;;;;5016113;28;20230;-80
2021/08/01 08:53:48;;;;;;;5.63;5.00;;;20.00;99.90;;;;;;5022701;28;20287;-80
2021/08/01 08:56:16;;;;;;;5.72;4.85;;;19.80;99.90;;;;;;5005963;28;20687;-77
2021/08/01 08:58:43;;;;;;;6.97;5.47;;;20.30;99.90;;;;;;5019527;28;20204;-77
2021/08/01 09:01:12;;;;;;;8.10;6.38;;;20.30;99.90;;;;;;5010501;28;20234;-78
2021/08/01 09:03:39;;;;;;;7.95;5.60;;;20.40;99.90;;;;;;5014157;28;20219;-79
2021/08/01 09:06:06;;;;;;;7.13;6.05;;;21.10;99.90;;;;;;5003191;28;20237;-79
2021/08/01 09:08:33;;;;;;;13.88;6.60;;;20.80;99.90;;;;;;5006529;28;20290;-79
2021/08/01 09:11:00;;;;;;;8.55;5.38;;;21.50;99.90;;;;;;5012463;28;20283;-79
2021/08/01 09:13:47;;;;;;;5.95;4.80;;;21.70;99.90;;;;;;5015426;28;20212;-80
2021/08/01 09:16:16;;;;;;;7.70;4.88;;;21.30;99.90;;;;;;5005714;28;20311;-79
2021/08/01 09:18:44;;;;;;;6.63;5.45;;;21.60;99.90;;;;;;5010468;28;20591;-79
2021/08/01 09:21:30;;;;;;;7.05;5.57;;;21.60;99.90;;;;;;5008241;28;20223;-80
2021/08/01 09:23:57;;;;;;;6.70;5.50;;;21.50;99.90;;;;;;5008833;28;20211;-79
2021/08/01 09:26:24;;;;;;;6.15;4.50;;;21.70;99.90;;;;;;5022173;28;20242;-80
2021/08/01 09:29:11;;;;;;;6.45;5.00;;;21.80;99.90;;;;;;5015370;28;20573;-78
2021/08/01 09:31:40;;;;;;;5.80;4.50;;;21.30;99.90;;;;;;5001641;28;20209;-83
2021/08/01 09:34:22;;;;;;;6.80;5.05;;;21.20;99.90;;;;;;5005023;28;20205;-79
2021/08/01 09:37:00;;;;;;;8.00;5.70;;;21.60;99.90;;;;;;5009530;28;20229;-81
2021/08/01 09:39:28;;;;;;;5.30;4.60;;;21.80;99.90;;;;;;5007332;28;20660;-80
2021/08/01 09:42:04;;;;;;;5.40;4.55;;;22.40;99.90;;;;;;5018553;28;20232;-81
2021/08/01 09:44:32;;;;;;;7.13;4.82;;;22.90;99.90;;;;;;5019050;28;20208;-82
2021/08/01 09:47:00;;;;;;;6.18;5.10;;;22.90;99.90;;;;;;5013985;28;20228;-80
2021/08/01 09:49:29;;;;;;;5.68;4.97;;;22.30;99.90;;;;;;5004898;28;20280;-81
2021/08/01 09:51:57;;;;;;;5.47;4.13;;;21.40;99.90;;;;;;5010861;28;20201;-82
2021/08/01 09:54:26;;;;;;;6.25;4.32;;;21.20;99.90;;;;;;5011608;28;20208;-82
2021/08/01 09:56:57;;;;;;;4.50;4.07;;;21.30;99.90;;;;;;5009390;28;20238;-86
2021/08/01 09:59:26;;;;;;;6.68;4.18;;;21.50;99.90;;;;;;5014159;28;20295;-82
2021/08/01 10:01:55;;;;;;;4.18;3.78;;;22.10;99.90;;;;;;5005793;28;20227;-83
2021/08/01 10:04:25;;;;;;;4.38;3.55;;;22.20;99.90;;;;;;5011066;28;20276;-84
2021/08/01 10:07:02;;;;;;;5.28;3.70;;;22.80;99.90;;;;;;5012659;28;20815;-82
2021/08/01 10:09:29;;;;;;;3.72;3.42;;;23.10;99.90;;;;;;5009851;28;20217;-81
2021/08/01 10:11:56;;;;;;;4.22;3.53;;;23.20;99.90;;;;;;5007391;28;20231;-83
2021/08/01 10:14:24;;;;;;;5.15;3.42;;;22.90;99.90;;;;;;5011439;28;20232;-81
2021/08/01 10:16:51;;;;;;;4.60;3.33;;;23.10;99.90;;;;;;5006434;28;20228;-81
2021/08/01 10:19:19;;;;;;;3.83;3.38;;;23.10;99.90;;;;;;5011570;28;20204;-83
2021/08/01 10:21:49;;;;;;;4.47;3.78;;;23.80;99.90;;;;;;5011894;28;20230;-81
2021/08/01 10:24:17;;;;;;;4.07;3.30;;;23.10;99.90;;;;;;5005251;28;20589;-83
2021/08/01 10:26:48;;;;;;;4.80;3.45;;;23.20;99.90;;;;;;5009836;28;20703;-82
2021/08/01 10:29:22;;;;;;;3.58;3.28;;;23.30;99.90;;;;;;5010484;28;20211;-82
2021/08/01 10:31:56;;;;;;;4.32;3.10;;;23.20;99.90;;;;;;5008346;28;20204;-82
2021/08/01 10:34:36;;;;;;;3.92;3.50;;;23.40;99.90;;;;;;5004972;28;20292;-83
2021/08/01 10:37:11;;;;;;;3.78;3.28;;;23.80;99.90;;;;;;5008861;28;20243;-82
2021/08/01 10:39:41;;;;;;;3.50;3.20;;;23.30;99.90;;;;;;5009608;28;20212;-82
2021/08/01 10:42:13;;;;;;;5.32;3.30;;;22.80;99.90;;;;;;5014363;28;20227;-81
2021/08/01 10:44:41;;;;;;;3.30;2.95;;;22.50;99.90;;;;;;5017626;28;20209;-81
2021/08/01 10:47:09;;;;;;;4.07;3.13;;;22.70;99.90;;;;;;5004855;28;20260;-82
2021/08/01 10:49:41;;;;;;;4.55;3.63;;;22.70;99.90;;;;;;5009970;28;20221;-81
2021/08/01 10:52:12;;;;;;;5.43;3.80;;;22.70;99.90;;;;;;5011332;28;20209;-82
2021/08/01 10:54:53;;;;;;;4.03;3.22;;;22.20;99.90;;;;;;5016327;28;20238;-84
2021/08/01 10:57:22;;;;;;;5.88;3.20;;;22.50;99.90;;;;;;5017175;28;20208;-82
2021/08/01 11:00:03;;;;;;;5.50;3.35;;;23.30;99.90;;;;;;5014448;28;20288;-82
2021/08/01 11:02:32;;;;;;;5.65;3.35;;;23.00;99.90;;;;;;5007514;28;20310;-81
2021/08/01 11:05:19;;;;;;;3.35;2.95;;;23.30;99.90;;;;;;5021555;28;20668;-82
2021/08/01 11:08:04;;;;;;;4.28;3.58;;;24.00;99.90;;;;;;5006425;28;20232;-82
2021/08/01 11:10:32;;;;;;;3.70;3.28;;;24.90;99.90;;;;;;5015666;28;20231;-83
2021/08/01 11:12:59;;;;;;;3.47;2.92;;;24.90;99.90;;;;;;5013187;28;20308;-81
2021/08/01 11:15:46;;;;;;;5.47;2.90;;;24.40;99.90;;;;;;5011564;28;20311;-82
2021/08/01 11:18:13;;;;;;;2.75;2.55;;;24.60;99.90;;;;;;5012416;28;20231;-80
2021/08/01 11:20:53;;;;;;;3.40;2.60;;;24.30;99.90;;;;;;5013388;28;20283;-82
2021/08/01 11:23:22;;;;;;;3.17;2.88;;;23.50;99.90;;;;;;5013790;28;20220;-80
2021/08/01 11:26:11;;;;;;;3.33;2.97;;;23.50;99.90;;;;;;5017037;28;20310;-81
2021/08/01 11:28:39;;;;;;;4.32;3.45;;;24.20;99.90;;;;;;5020642;28;20212;-83
2021/08/01 11:31:18;;;;;;;3.58;3.05;;;23.90;99.90;;;;;;5010511;28;20208;-82
2021/08/01 11:33:46;;;;;;;3.53;3.05;;;23.70;99.90;;;;;;5003628;28;20586;-81
2021/08/01 11:36:22;;;;;;;3.55;2.50;;;24.00;99.90;;;;;;5024680;28;20451;-81
2021/08/01 11:39:07;;;;;;;2.70;2.50;;;24.30;99.90;;;;;;5011965;28;20235;-82
2021/08/01 11:41:38;;;;;;;3.22;2.40;;;24.00;99.90;;;;;;5023682;28;20397;-82
2021/08/01 11:44:06;;;;;;;2.33;2.13;;;24.20;99.90;;;;;;5008623;28;20291;-80
2021/08/01 11:46:59;;;;;;;3.17;2.72;;;24.40;99.90;;;;;;5009602;28;20255;-80
2021/08/01 11:49:28;;;;;;;3.20;2.90;;;24.70;99.90;;;;;;5017673;28;20222;-81
2021/08/01 11:51:56;;;;;;;3.30;3.00;;;24.70;99.90;;;;;;5017927;28;20207;-82
2021/08/01 11:54:28;;;;;;;3.97;3.20;;;24.10;99.90;;;;;;5013961;28;20201;-83
2021/08/01 11:56:58;;;;;;;3.40;3.10;;;23.80;99.90;;;;;;5011789;28;20287;-82
2021/08/01 11:59:25;;;;;;;3.53;3.22;;;23.30;99.90;;;;;;5013138;28;20295;-82
2021/08/01 12:01:54;;;;;;;5.05;4.05;;;23.00;99.90;;;;;;5015745;28;20233;-80
2021/08/01 12:04:20;;;;;;;4.85;3.88;;;22.70;99.90;;;;;;5014915;28;20816;-82
2021/08/01 12:06:47;;;;;;;3.97;3.40;;;22.50;99.90;;;;;;5005411;28;20292;-79
2021/08/01 12:09:18;;;;;;;7.18;3.50;;;22.20;99.90;;;;;;5012307;28;20274;-80
2021/08/01 12:11:48;;;;;;;5.57;3.25;;;22.20;99.90;;;;;;5011393;28;20226;-81
2021/08/01 12:14:16;;;;;;;5.07;3.60;;;22.70;99.90;;;;;;5012557;28;20597;-82
2021/08/01 12:17:02;;;;;;;6.80;3.97;;;23.00;99.90;;;;;;5008491;28;20729;-85
2021/08/01 12:19:31;;;;;;;4.93;3.83;;;23.10;99.90;;;;;;5007871;28;20212;-83
2021/08/01 12:22:00;;;;;;;7.72;3.58;;;23.20;99.90;;;;;;5005225;28;20212;-81
2021/08/01 12:24:33;;;;;;;7.97;3.58;;;23.60;99.90;;;;;;5002209;28;20207;-81
2021/08/01 12:27:04;;;;;;;11.10;4.25;;;24.20;99.90;;;;;;5008416;28;20232;-80
2021/08/01 12:29:33;;;;;;;5.07;3.58;;;23.80;99.90;;;;;;5008698;28;20204;-82
2021/08/01 12:32:01;;;;;;;4.82;4.10;;;23.60;99.90;;;;;;5013338;28;20212;-81
2021/08/01 12:34:28;;;;;;;4.45;3.92;;;24.00;99.90;;;;;;5010187;28;20197;-80
2021/08/01 12:36:56;;;;;;;4.50;3.28;;;23.70;99.90;;;;;;5005287;28;20252;-82
2021/08/01 12:39:23;;;;;;;5.90;3.60;;;23.60;99.90;;;;;;5012013;28;20211;-80
2021/08/01 12:41:51;;;;;;;5.93;4.30;;;23.90;99.90;;;;;;5009301;28;20224;-81
2021/08/01 12:44:20;;;;;;;6.53;4.00;;;24.20;99.90;;;;;;5009966;28;20208;-83
2021/08/01 12:46:48;;;;;;;5.25;3.90;;;25.20;99.90;;;;;;5009511;28;20592;-81
2021/08/01 12:49:15;;;;;;;4.63;3.60;;;25.10;99.90;;;;;;5013135;28;20196;-81
2021/08/01 12:51:45;;;;;;;7.00;4.22;;;24.30;99.90;;;;;;5010076;28;20669;-82
2021/08/01 12:54:12;;;;;;;4.68;3.97;;;24.00;99.90;;;;;;5010217;28;20215;-83
2021/08/01 12:57:06;;;;;;;4.82;3.92;;;23.90;99.90;;;;;;5011140;28;20230;-81